createdAt,value
2018-11-10T00:01:01.381Z,19.85
2018-11-10T00:06:06.263Z,18.62
2018-11-10T00:11:10.912Z,19.32
2018-11-10T00:16:15.425Z,19.48
2018-11-10T00:21:20.963Z,17.82
2018-11-10T00:26:25.599Z,17.85
2018-11-10T00:31:36.383Z,18.00
2018-11-10T00:36:41.037Z,18.52
2018-11-10T00:41:45.767Z,18.42
2018-11-10T00:46:50.924Z,19.50
2018-11-10T00:51:55.569Z,18.15
2018-11-10T00:57:00.102Z,19.62
2018-11-10T01:02:05.292Z,17.60
2018-11-10T01:07:09.868Z,19.07
2018-11-10T01:12:15.088Z,17.75
2018-11-10T01:17:19.748Z,18.73
2018-11-10T01:22:24.384Z,18.05
2018-11-10T01:27:29.417Z,18.12
2018-11-10T01:32:34.141Z,19.42
2018-11-10T01:37:39.012Z,18.35
2018-11-10T01:42:43.768Z,18.27
2018-11-10T01:47:49.920Z,18.02
2018-11-10T01:58:21.928Z,17.45
2018-11-10T02:03:26.366Z,17.73
2018-11-10T02:08:30.858Z,18.17
2018-11-10T02:13:35.289Z,18.37
2018-11-10T02:18:40.861Z,19.07
2018-11-10T02:23:45.847Z,19.27
2018-11-10T02:28:50.283Z,18.77
2018-11-10T02:33:54.974Z,18.45
2018-11-10T02:38:59.615Z,18.32
2018-11-10T02:44:04.132Z,18.57
2018-11-10T02:49:09.041Z,17.17
2018-11-10T02:54:13.713Z,18.95
2018-11-10T02:59:18.172Z,18.20
2018-11-10T03:04:22.704Z,17.07
2018-11-10T03:09:27.446Z,16.65
2018-11-10T03:14:32.183Z,17.52
2018-11-10T03:19:36.798Z,18.23
2018-11-10T03:24:45.052Z,17.17
2018-11-10T03:29:49.962Z,18.00
2018-11-10T03:34:55.228Z,18.10
2018-11-10T03:39:59.894Z,17.20
2018-11-10T03:45:04.601Z,17.15
2018-11-10T03:50:09.886Z,16.97
2018-11-10T03:55:14.507Z,17.67
2018-11-10T04:00:19.626Z,17.57
2018-11-10T04:05:27.338Z,17.82
2018-11-10T04:10:32.123Z,18.45
2018-11-10T04:15:37.414Z,18.90
2018-11-10T04:20:42.017Z,17.35
2018-11-10T04:25:46.614Z,17.47
2018-11-10T04:30:51.236Z,15.55
2018-11-10T04:35:56.424Z,15.83
2018-11-10T04:41:00.866Z,15.78
2018-11-10T04:46:07.067Z,15.80
2018-11-10T04:51:12.118Z,16.55
2018-11-10T04:56:16.708Z,16.37
2018-11-10T05:01:21.343Z,16.87
2018-11-10T05:06:25.998Z,15.20
2018-11-10T05:11:30.640Z,13.62
2018-11-10T05:16:35.128Z,13.93
2018-11-10T05:21:39.791Z,13.30
2018-11-10T05:26:44.524Z,13.88
2018-11-10T05:37:16.464Z,12.83
2018-11-10T05:42:21.013Z,11.70
2018-11-10T05:47:25.704Z,11.33
2018-11-10T05:52:30.145Z,11.50
2018-11-10T05:57:34.691Z,12.87
2018-11-10T06:02:39.440Z,11.67
2018-11-10T06:07:43.615Z,11.07
2018-11-10T06:12:48.249Z,11.73
2018-11-10T06:17:52.819Z,10.70
2018-11-10T06:22:58.375Z,10.47
2018-11-10T06:33:13.272Z,10.50
2018-11-10T06:38:17.640Z,10.60
2018-11-10T06:43:22.244Z,10.23
2018-11-10T06:48:27.149Z,11.63
2018-11-10T06:53:31.695Z,11.50
2018-11-10T06:58:36.276Z,10.53
2018-11-10T07:03:40.812Z,10.27
2018-11-10T07:08:45.866Z,9.80
2018-11-10T07:13:50.189Z,9.23
2018-11-10T07:18:54.801Z,8.90
2018-11-10T07:23:59.161Z,9.47
2018-11-10T07:29:03.887Z,8.97
2018-11-10T07:34:08.576Z,9.17
2018-11-10T07:39:14.264Z,10.07
2018-11-10T07:44:18.767Z,9.20
2018-11-10T07:49:23.781Z,9.23
2018-11-10T07:54:28.440Z,9.43
2018-11-10T07:59:33.038Z,9.33
2018-11-10T08:04:37.355Z,9.25
2018-11-10T08:09:42.499Z,9.73
2018-11-10T08:14:47.154Z,9.77
2018-11-10T08:19:51.834Z,8.48
2018-11-10T08:24:56.329Z,8.93
2018-11-10T08:30:00.681Z,8.17
2018-11-10T08:35:05.537Z,7.60
2018-11-10T08:40:12.957Z,8.83
2018-11-10T08:45:18.233Z,8.80
2018-11-10T08:50:22.603Z,8.58
2018-11-10T08:55:27.137Z,8.97
2018-11-10T09:00:31.615Z,8.13
2018-11-10T09:05:37.162Z,8.40
2018-11-10T09:10:41.784Z,10.33
2018-11-10T09:15:46.158Z,10.10
2018-11-10T09:20:50.586Z,11.30
2018-11-10T09:25:55.047Z,9.70
2018-11-10T09:31:00.249Z,10.17
2018-11-10T09:36:04.608Z,10.57
2018-11-10T09:41:09.132Z,10.73
2018-11-10T09:46:13.697Z,12.98
2018-11-10T09:51:19.327Z,13.80
2018-11-10T09:56:23.965Z,17.80
2018-11-10T10:01:28.576Z,11.95
2018-11-10T10:06:32.884Z,9.90
2018-11-10T10:11:38.386Z,10.23
2018-11-10T10:16:42.890Z,11.83
2018-11-10T10:21:47.259Z,11.25
2018-11-10T10:26:51.771Z,10.90
2018-11-10T10:31:56.265Z,11.45
2018-11-10T10:37:00.965Z,11.20
2018-11-10T10:42:05.330Z,12.70
2018-11-10T10:47:10.024Z,11.33
2018-11-10T10:52:15.094Z,12.40
2018-11-10T10:57:26.128Z,12.05
2018-11-10T11:02:36.391Z,13.18
2018-11-10T11:07:41.428Z,12.95
2018-11-10T11:12:46.730Z,12.80
2018-11-10T11:17:51.212Z,11.28
2018-11-10T11:22:55.399Z,12.80
2018-11-10T11:27:59.707Z,11.12
2018-11-10T11:33:04.347Z,12.80
2018-11-10T11:38:15.470Z,13.45
2018-11-10T11:43:20.062Z,12.88
2018-11-10T11:48:24.615Z,13.28
2018-11-10T11:53:29.932Z,12.35
2018-11-10T11:58:34.331Z,13.53
2018-11-10T12:03:38.981Z,12.35
2018-11-10T12:08:45.252Z,12.28
2018-11-10T12:13:50.677Z,13.70
2018-11-10T12:18:55.237Z,12.43
2018-11-10T12:29:28.495Z,12.07
2018-11-10T12:34:54.415Z,12.03
2018-11-10T12:39:58.729Z,12.50
2018-11-10T12:45:03.037Z,11.45
2018-11-10T12:50:09.501Z,12.98
2018-11-10T12:55:15.244Z,12.23
2018-11-10T13:00:20.246Z,11.68
2018-11-10T13:05:24.737Z,10.38
2018-11-10T13:10:29.206Z,11.65
2018-11-10T13:15:34.388Z,11.70
2018-11-10T13:20:39.971Z,12.10
2018-11-10T13:25:44.339Z,10.38
2018-11-10T13:30:49.083Z,10.70
2018-11-10T13:35:54.749Z,11.30
2018-11-10T13:40:59.257Z,11.18
2018-11-10T13:46:04.500Z,10.48
2018-11-10T13:51:09.986Z,11.08
2018-11-10T13:56:14.489Z,10.25
2018-11-10T14:01:19.000Z,10.08
2018-11-10T14:06:24.008Z,10.08
2018-11-10T14:11:28.545Z,11.08
2018-11-10T14:16:33.334Z,11.10
2018-11-10T14:21:45.856Z,10.60
2018-11-10T14:26:51.807Z,11.38
2018-11-10T14:31:56.793Z,11.10
2018-11-10T14:37:01.306Z,10.90
2018-11-10T14:42:06.284Z,11.95
2018-11-10T14:47:10.896Z,10.93
2018-11-10T14:52:15.843Z,10.72
2018-11-10T14:57:21.225Z,11.53
2018-11-10T15:02:25.945Z,11.80
2018-11-10T15:07:30.940Z,11.50
2018-11-10T15:12:36.151Z,10.80
2018-11-10T15:17:41.148Z,10.78
2018-11-10T15:22:46.636Z,11.43
2018-11-10T15:27:51.343Z,11.57
2018-11-10T15:32:55.900Z,11.03
2018-11-10T15:38:01.131Z,12.03
2018-11-10T15:43:05.776Z,11.08
2018-11-10T15:48:12.824Z,11.40
2018-11-10T15:53:17.933Z,11.83
2018-11-10T15:58:22.446Z,12.07
2018-11-10T16:03:27.163Z,11.40
2018-11-10T16:08:33.814Z,12.97
2018-11-10T16:13:38.291Z,12.97
2018-11-10T16:18:43.258Z,13.17
2018-11-10T16:23:48.734Z,13.23
2018-11-10T16:28:53.304Z,12.57
2018-11-10T16:33:58.594Z,12.97
2018-11-10T16:39:05.020Z,10.53
2018-11-10T16:44:09.488Z,11.43
2018-11-10T16:49:13.784Z,11.97
2018-11-10T16:54:18.371Z,12.80
2018-11-10T16:59:22.787Z,13.63
2018-11-10T17:04:28.083Z,12.13
2018-11-10T17:09:32.513Z,13.50
2018-11-10T17:14:37.284Z,11.47
2018-11-10T17:19:41.790Z,11.83
2018-11-10T17:24:47.352Z,10.87
2018-11-10T17:29:53.034Z,11.80
2018-11-10T17:34:57.545Z,11.57
2018-11-10T17:40:03.024Z,12.47
2018-11-10T17:45:09.322Z,14.53
2018-11-10T17:50:15.056Z,13.77
2018-11-10T17:55:19.562Z,13.23
2018-11-10T18:00:24.074Z,13.20
2018-11-10T18:05:28.830Z,12.57
2018-11-10T18:10:33.136Z,11.43
2018-11-10T18:15:38.207Z,12.75
2018-11-10T18:20:42.642Z,11.73
2018-11-10T18:25:47.078Z,11.43
2018-11-10T18:30:52.243Z,13.45
2018-11-10T18:35:56.976Z,11.77
2018-11-10T18:41:01.472Z,13.33
2018-11-10T18:46:06.523Z,12.30
2018-11-10T18:51:11.719Z,12.73
2018-11-10T18:56:16.430Z,13.33
2018-11-10T19:01:21.273Z,14.50
2018-11-10T19:06:26.930Z,13.53
2018-11-10T19:11:31.585Z,14.47
2018-11-10T19:16:38.327Z,12.33
2018-11-10T19:21:43.509Z,13.30
2018-11-10T19:26:48.544Z,13.10
2018-11-10T19:31:53.419Z,12.67
2018-11-10T19:36:59.044Z,14.93
2018-11-10T19:42:03.490Z,15.23
2018-11-10T19:47:08.741Z,13.97
2018-11-10T19:52:14.064Z,14.23
2018-11-10T19:57:19.198Z,12.93
2018-11-10T20:07:55.883Z,14.77
2018-11-10T20:13:00.254Z,12.53
2018-11-10T20:18:05.863Z,13.70
2018-11-10T20:23:10.552Z,12.07
2018-11-10T20:28:14.992Z,13.47
2018-11-10T20:33:19.664Z,12.77
2018-11-10T20:38:25.685Z,13.03
2018-11-10T20:43:30.355Z,12.23
2018-11-10T20:48:35.304Z,12.17
2018-11-10T20:53:39.865Z,14.67
2018-11-10T20:58:44.252Z,14.93
2018-11-10T21:03:51.200Z,12.47
2018-11-10T21:08:55.662Z,12.00
2018-11-10T21:14:00.058Z,16.60
2018-11-10T21:19:05.617Z,14.97
2018-11-10T21:24:10.078Z,14.80
2018-11-10T21:29:14.710Z,16.13
2018-11-10T21:34:19.492Z,15.30
2018-11-10T21:39:23.876Z,16.10
2018-11-10T21:44:28.421Z,15.20
2018-11-10T21:49:32.915Z,15.03
2018-11-10T21:54:37.242Z,14.00
2018-11-10T21:59:41.917Z,15.23
2018-11-10T22:04:46.502Z,15.83
2018-11-10T22:10:10.375Z,16.17
2018-11-10T22:15:16.420Z,17.60
2018-11-10T22:20:22.118Z,17.77
2018-11-10T22:25:26.929Z,17.20
2018-11-10T22:30:31.783Z,17.10
2018-11-10T22:35:36.404Z,16.20
2018-11-10T22:40:40.960Z,17.40
2018-11-10T22:45:46.033Z,16.77
2018-11-10T22:50:50.692Z,16.27
2018-11-10T22:55:55.301Z,15.90
2018-11-10T23:01:05.354Z,16.05
2018-11-10T23:06:10.858Z,15.43
2018-11-10T23:11:15.433Z,16.03
2018-11-10T23:16:20.124Z,16.87
2018-11-10T23:21:24.519Z,15.68
2018-11-10T23:26:29.159Z,16.50
2018-11-10T23:31:33.543Z,15.30
2018-11-10T23:36:38.077Z,15.63
2018-11-10T23:41:42.724Z,15.57
2018-11-10T23:46:47.194Z,16.80
2018-11-10T23:51:51.861Z,15.27
2018-11-10T23:56:57.817Z,15.63
